sensor_id;sensor_type;location;lat;lon;timestamp;pressure;altitude;pressure_sealevel;temperature
17716;BMP280;50159;49.426;11.182;2023-12-20T00:01:58;97556.03;;;5.65
17716;BMP280;50159;49.426;11.182;2023-12-20T00:04:24;97548.19;;;5.67
17716;BMP280;50159;49.426;11.182;2023-12-20T00:06:51;97539.63;;;5.66
17716;BMP280;50159;49.426;11.182;2023-12-20T00:09:19;97543.03;;;5.67
17716;BMP280;50159;49.426;11.182;2023-12-20T00:11:45;97547.31;;;5.68
17716;BMP280;50159;49.426;11.182;2023-12-20T00:14:12;97544.63;;;5.69
17716;BMP280;50159;49.426;11.182;2023-12-20T00:16:39;97547.84;;;5.73
17716;BMP280;50159;49.426;11.182;2023-12-20T00:19:06;97547.75;;;5.74
17716;BMP280;50159;49.426;11.182;2023-12-20T00:21:33;97542.41;;;5.77
17716;BMP280;50159;49.426;11.182;2023-12-20T00:24:00;97544.06;;;5.78
17716;BMP280;50159;49.426;11.182;2023-12-20T00:26:26;97539.72;;;5.79
17716;BMP280;50159;49.426;11.182;2023-12-20T00:28:54;97535.31;;;5.81
17716;BMP280;50159;49.426;11.182;2023-12-20T00:31:21;97533.66;;;5.80
17716;BMP280;50159;49.426;11.182;2023-12-20T00:33:48;97519.00;;;5.80
17716;BMP280;50159;49.426;11.182;2023-12-20T00:36:15;97527.47;;;5.82
17716;BMP280;50159;49.426;11.182;2023-12-20T00:38:42;97523.22;;;5.81
17716;BMP280;50159;49.426;11.182;2023-12-20T00:41:08;97512.09;;;5.81
17716;BMP280;50159;49.426;11.182;2023-12-20T00:43:35;97514.75;;;5.79
17716;BMP280;50159;49.426;11.182;2023-12-20T00:46:02;97514.66;;;5.81
17716;BMP280;50159;49.426;11.182;2023-12-20T00:48:29;97511.16;;;5.81
17716;BMP280;50159;49.426;11.182;2023-12-20T00:50:58;97515.28;;;5.84
17716;BMP280;50159;49.426;11.182;2023-12-20T00:53:25;97509.19;;;5.85
17716;BMP280;50159;49.426;11.182;2023-12-20T00:55:52;97503.94;;;5.86
17716;BMP280;50159;49.426;11.182;2023-12-20T00:58:18;97509.94;;;5.87
17716;BMP280;50159;49.426;11.182;2023-12-20T01:00:45;97509.00;;;5.88
17716;BMP280;50159;49.426;11.182;2023-12-20T01:03:12;97505.44;;;5.90
17716;BMP280;50159;49.426;11.182;2023-12-20T01:05:40;97513.19;;;5.90
17716;BMP280;50159;49.426;11.182;2023-12-20T01:08:06;97501.81;;;5.93
17716;BMP280;50159;49.426;11.182;2023-12-20T01:10:33;97500.06;;;5.93
17716;BMP280;50159;49.426;11.182;2023-12-20T01:13:00;97487.06;;;5.95
17716;BMP280;50159;49.426;11.182;2023-12-20T01:15:27;97505.13;;;5.95
17716;BMP280;50159;49.426;11.182;2023-12-20T01:17:53;97501.72;;;5.94
17716;BMP280;50159;49.426;11.182;2023-12-20T01:20:20;97505.84;;;5.97
17716;BMP280;50159;49.426;11.182;2023-12-20T01:22:47;97498.13;;;5.97
17716;BMP280;50159;49.426;11.182;2023-12-20T01:25:14;97497.19;;;5.98
17716;BMP280;50159;49.426;11.182;2023-12-20T01:27:41;97492.03;;;5.98
17716;BMP280;50159;49.426;11.182;2023-12-20T01:30:08;97502.34;;;5.98
17716;BMP280;50159;49.426;11.182;2023-12-20T01:32:35;97498.13;;;5.97
17716;BMP280;50159;49.426;11.182;2023-12-20T01:35:02;97486.88;;;5.98
17716;BMP280;50159;49.426;11.182;2023-12-20T01:37:29;97484.28;;;5.98
17716;BMP280;50159;49.426;11.182;2023-12-20T01:39:56;97483.34;;;5.99
17716;BMP280;50159;49.426;11.182;2023-12-20T01:42:23;97485.22;;;5.97
17716;BMP280;50159;49.426;11.182;2023-12-20T01:44:50;97489.44;;;5.98
17716;BMP280;50159;49.426;11.182;2023-12-20T01:47:17;97485.94;;;5.99
17716;BMP280;50159;49.426;11.182;2023-12-20T01:49:43;97476.34;;;6.01
17716;BMP280;50159;49.426;11.182;2023-12-20T01:52:11;97474.78;;;5.98
17716;BMP280;50159;49.426;11.182;2023-12-20T01:54:40;97472.19;;;5.98
17716;BMP280;50159;49.426;11.182;2023-12-20T01:57:08;97470.56;;;5.97
17716;BMP280;50159;49.426;11.182;2023-12-20T01:59:35;97474.88;;;5.97
17716;BMP280;50159;49.426;11.182;2023-12-20T02:02:03;97476.63;;;5.96
17716;BMP280;50159;49.426;11.182;2023-12-20T02:04:30;97480.88;;;5.97
17716;BMP280;50159;49.426;11.182;2023-12-20T02:06:58;97473.22;;;5.96
17716;BMP280;50159;49.426;11.182;2023-12-20T02:09:27;97461.97;;;5.97
17716;BMP280;50159;49.426;11.182;2023-12-20T02:11:54;97472.41;;;5.95
17716;BMP280;50159;49.426;11.182;2023-12-20T02:14:21;97472.41;;;5.95
17716;BMP280;50159;49.426;11.182;2023-12-20T02:16:48;97468.16;;;5.94
17716;BMP280;50159;49.426;11.182;2023-12-20T02:19:15;97459.59;;;5.94
17716;BMP280;50159;49.426;11.182;2023-12-20T02:21:42;97460.84;;;6.01
17716;BMP280;50159;49.426;11.182;2023-12-20T02:24:09;97461.06;;;5.98
17716;BMP280;50159;49.426;11.182;2023-12-20T02:26:36;97460.44;;;5.94
17716;BMP280;50159;49.426;11.182;2023-12-20T02:29:02;97454.44;;;5.94
17716;BMP280;50159;49.426;11.182;2023-12-20T02:31:29;97451.97;;;5.92
17716;BMP280;50159;49.426;11.182;2023-12-20T02:33:56;97459.69;;;5.92
17716;BMP280;50159;49.426;11.182;2023-12-20T02:36:23;97462.56;;;5.88
17716;BMP280;50159;49.426;11.182;2023-12-20T02:38:50;97451.50;;;5.86
17716;BMP280;50159;49.426;11.182;2023-12-20T02:41:17;97455.94;;;5.84
17716;BMP280;50159;49.426;11.182;2023-12-20T02:43:45;97451.59;;;5.84
17716;BMP280;50159;49.426;11.182;2023-12-20T02:46:12;97458.81;;;5.80
17716;BMP280;50159;49.426;11.182;2023-12-20T02:48:39;97454.69;;;5.77
17716;BMP280;50159;49.426;11.182;2023-12-20T02:51:05;97451.53;;;5.72
17716;BMP280;50159;49.426;11.182;2023-12-20T02:53:32;97459.47;;;5.69
17716;BMP280;50159;49.426;11.182;2023-12-20T02:55:59;97473.09;;;5.71
17716;BMP280;50159;49.426;11.182;2023-12-20T02:58:26;97475.13;;;5.66
17716;BMP280;50159;49.426;11.182;2023-12-20T03:00:52;97468.69;;;5.59
17716;BMP280;50159;49.426;11.182;2023-12-20T03:03:19;97473.84;;;5.59
17716;BMP280;50159;49.426;11.182;2023-12-20T03:05:46;97484.53;;;5.54
17716;BMP280;50159;49.426;11.182;2023-12-20T03:08:13;97478.09;;;5.47
17716;BMP280;50159;49.426;11.182;2023-12-20T03:10:40;97482.09;;;5.38
17716;BMP280;50159;49.426;11.182;2023-12-20T03:13:07;97458.41;;;5.32
17716;BMP280;50159;49.426;11.182;2023-12-20T03:15:34;97473.16;;;5.30
17716;BMP280;50159;49.426;11.182;2023-12-20T03:18:01;97461.28;;;5.28
17716;BMP280;50159;49.426;11.182;2023-12-20T03:20:28;97464.28;;;5.34
17716;BMP280;50159;49.426;11.182;2023-12-20T03:22:55;97463.75;;;5.29
17716;BMP280;50159;49.426;11.182;2023-12-20T03:25:21;97458.84;;;5.25
17716;BMP280;50159;49.426;11.182;2023-12-20T03:27:48;97459.69;;;5.25
17716;BMP280;50159;49.426;11.182;2023-12-20T03:30:15;97460.06;;;5.19
17716;BMP280;50159;49.426;11.182;2023-12-20T03:32:42;97468.00;;;5.16
17716;BMP280;50159;49.426;11.182;2023-12-20T03:35:09;97462.13;;;5.14
17716;BMP280;50159;49.426;11.182;2023-12-20T03:37:36;97469.84;;;5.14
17716;BMP280;50159;49.426;11.182;2023-12-20T03:40:03;97472.41;;;5.14
17716;BMP280;50159;49.426;11.182;2023-12-20T03:42:30;97481.06;;;5.13
17716;BMP280;50159;49.426;11.182;2023-12-20T03:44:57;97468.34;;;5.11
17716;BMP280;50159;49.426;11.182;2023-12-20T03:47:24;97476.09;;;5.11
17716;BMP280;50159;49.426;11.182;2023-12-20T03:49:50;97475.34;;;5.09
17716;BMP280;50159;49.426;11.182;2023-12-20T03:52:17;97472.78;;;5.09
17716;BMP280;50159;49.426;11.182;2023-12-20T03:54:44;97477.00;;;5.10
17716;BMP280;50159;49.426;11.182;2023-12-20T03:57:11;97477.00;;;5.10
17716;BMP280;50159;49.426;11.182;2023-12-20T03:59:37;97492.66;;;5.07
17716;BMP280;50159;49.426;11.182;2023-12-20T04:02:04;97491.00;;;5.06
17716;BMP280;50159;49.426;11.182;2023-12-20T04:04:31;97480.69;;;5.06
17716;BMP280;50159;49.426;11.182;2023-12-20T04:06:58;97484.19;;;5.05
17716;BMP280;50159;49.426;11.182;2023-12-20T04:09:25;97485.03;;;5.05
17716;BMP280;50159;49.426;11.182;2023-12-20T04:11:52;97481.72;;;5.03
17716;BMP280;50159;49.426;11.182;2023-12-20T04:14:18;97483.38;;;5.04
17716;BMP280;50159;49.426;11.182;2023-12-20T04:16:45;97487.50;;;5.07
17716;BMP280;50159;49.426;11.182;2023-12-20T04:19:13;97491.00;;;5.06
17716;BMP280;50159;49.426;11.182;2023-12-20T04:21:40;97487.50;;;5.07
17716;BMP280;50159;49.426;11.182;2023-12-20T04:24:07;97485.03;;;5.05
17716;BMP280;50159;49.426;11.182;2023-12-20T04:26:34;97482.63;;;5.02
17716;BMP280;50159;49.426;11.182;2023-12-20T04:29:01;97491.94;;;5.05
17716;BMP280;50159;49.426;11.182;2023-12-20T04:31:28;97485.84;;;5.06
17716;BMP280;50159;49.426;11.182;2023-12-20T04:33:55;97493.03;;;5.01
17716;BMP280;50159;49.426;11.182;2023-12-20T04:36:22;97476.81;;;4.99
17716;BMP280;50159;49.426;11.182;2023-12-20T04:38:48;97473.41;;;4.98
17716;BMP280;50159;49.426;11.182;2023-12-20T04:41:15;97485.47;;;4.98
17716;BMP280;50159;49.426;11.182;2023-12-20T04:43:42;97480.31;;;4.98
17716;BMP280;50159;49.426;11.182;2023-12-20T04:46:09;97485.47;;;4.98
17716;BMP280;50159;49.426;11.182;2023-12-20T04:48:36;97484.38;;;5.02
17716;BMP280;50159;49.426;11.182;2023-12-20T04:51:03;97494.84;;;4.99
17716;BMP280;50159;49.426;11.182;2023-12-20T04:53:30;97486.28;;;4.98
17716;BMP280;50159;49.426;11.182;2023-12-20T04:55:57;97490.63;;;4.98
17716;BMP280;50159;49.426;11.182;2023-12-20T04:58:23;97479.56;;;4.96
17716;BMP280;50159;49.426;11.182;2023-12-20T05:00:50;97484.72;;;4.96
17716;BMP280;50159;49.426;11.182;2023-12-20T05:03:17;97485.47;;;4.98
17716;BMP280;50159;49.426;11.182;2023-12-20T05:05:44;97500.00;;;4.99
17716;BMP280;50159;49.426;11.182;2023-12-20T05:08:10;97497.34;;;5.00
17716;BMP280;50159;49.426;11.182;2023-12-20T05:10:37;97506.81;;;5.00
17716;BMP280;50159;49.426;11.182;2023-12-20T05:13:05;97498.19;;;5.01
17716;BMP280;50159;49.426;11.182;2023-12-20T05:15:31;97500.84;;;4.99
17716;BMP280;50159;49.426;11.182;2023-12-20T05:17:58;97512.06;;;4.98
17716;BMP280;50159;49.426;11.182;2023-12-20T05:20:25;97510.31;;;4.99
17716;BMP280;50159;49.426;11.182;2023-12-20T05:22:52;97519.16;;;4.95
17716;BMP280;50159;49.426;11.182;2023-12-20T05:25:19;97532.03;;;4.95
17716;BMP280;50159;49.426;11.182;2023-12-20T05:27:45;97521.72;;;4.95
17716;BMP280;50159;49.426;11.182;2023-12-20T05:30:13;97533.78;;;4.94
17716;BMP280;50159;49.426;11.182;2023-12-20T05:32:40;97527.06;;;4.92
17716;BMP280;50159;49.426;11.182;2023-12-20T05:35:07;97532.94;;;4.94
17716;BMP280;50159;49.426;11.182;2023-12-20T05:37:34;97539.75;;;4.95
17716;BMP280;50159;49.426;11.182;2023-12-20T05:40:01;97538.09;;;4.94
17716;BMP280;50159;49.426;11.182;2023-12-20T05:42:28;97534.53;;;4.96
17716;BMP280;50159;49.426;11.182;2023-12-20T05:44:54;97543.06;;;4.97
17716;BMP280;50159;49.426;11.182;2023-12-20T05:47:24;97544.09;;;4.94
17716;BMP280;50159;49.426;11.182;2023-12-20T05:49:51;97549.25;;;4.94
17716;BMP280;50159;49.426;11.182;2023-12-20T05:52:18;97545.00;;;4.93
17716;BMP280;50159;49.426;11.182;2023-12-20T05:54:45;97547.69;;;4.92
17716;BMP280;50159;49.426;11.182;2023-12-20T05:57:11;97548.59;;;4.91
17716;BMP280;50159;49.426;11.182;2023-12-20T05:59:39;97552.75;;;4.93
17716;BMP280;50159;49.426;11.182;2023-12-20T06:02:06;97555.22;;;4.95
17716;BMP280;50159;49.426;11.182;2023-12-20T06:04:33;97562.03;;;4.96
17716;BMP280;50159;49.426;11.182;2023-12-20T06:07:00;97561.22;;;4.95
17716;BMP280;50159;49.426;11.182;2023-12-20T06:09:27;97552.66;;;4.95
17716;BMP280;50159;49.426;11.182;2023-12-20T06:11:57;97559.56;;;4.94
17716;BMP280;50159;49.426;11.182;2023-12-20T06:14:24;97555.31;;;4.93
17716;BMP280;50159;49.426;11.182;2023-12-20T06:16:51;97556.97;;;4.94
17716;BMP280;50159;49.426;11.182;2023-12-20T06:19:17;97558.72;;;4.94
17716;BMP280;50159;49.426;11.182;2023-12-20T06:21:44;97562.97;;;4.95
17716;BMP280;50159;49.426;11.182;2023-12-20T06:24:11;97581.00;;;4.95
17716;BMP280;50159;49.426;11.182;2023-12-20T06:26:38;97586.16;;;4.95
17716;BMP280;50159;49.426;11.182;2023-12-20T06:29:04;97588.00;;;4.93
17716;BMP280;50159;49.426;11.182;2023-12-20T06:31:31;97587.16;;;4.92
17716;BMP280;50159;49.426;11.182;2023-12-20T06:34:00;97593.97;;;4.93
17716;BMP280;50159;49.426;11.182;2023-12-20T06:36:27;97596.44;;;4.95
17716;BMP280;50159;49.426;11.182;2023-12-20T06:38:54;97592.03;;;4.97
17716;BMP280;50159;49.426;11.182;2023-12-20T06:41:20;97595.53;;;4.96
17716;BMP280;50159;49.426;11.182;2023-12-20T06:43:47;97595.63;;;4.94
17716;BMP280;50159;49.426;11.182;2023-12-20T06:46:16;97595.63;;;4.94
17716;BMP280;50159;49.426;11.182;2023-12-20T06:48:44;97608.41;;;4.96
17716;BMP280;50159;49.426;11.182;2023-12-20T06:51:14;97609.00;;;5.01
17716;BMP280;50159;49.426;11.182;2023-12-20T06:53:41;97604.75;;;5.00
17716;BMP280;50159;49.426;11.182;2023-12-20T06:56:07;97598.09;;;4.96
17716;BMP280;50159;49.426;11.182;2023-12-20T06:58:35;97606.75;;;4.95
17716;BMP280;50159;49.426;11.182;2023-12-20T07:01:03;97596.53;;;4.93
17716;BMP280;50159;49.426;11.182;2023-12-20T07:03:31;97607.78;;;4.92
17716;BMP280;50159;49.426;11.182;2023-12-20T07:05:58;97615.50;;;4.92
17716;BMP280;50159;49.426;11.182;2023-12-20T07:08:24;97625.72;;;4.94
17716;BMP280;50159;49.426;11.182;2023-12-20T07:10:51;97636.03;;;4.94
17716;BMP280;50159;49.426;11.182;2023-12-20T07:13:18;97629.94;;;4.95
17716;BMP280;50159;49.426;11.182;2023-12-20T07:15:45;97645.31;;;4.96
17716;BMP280;50159;49.426;11.182;2023-12-20T07:18:11;97646.97;;;4.97
17716;BMP280;50159;49.426;11.182;2023-12-20T07:20:38;97646.16;;;4.97
17716;BMP280;50159;49.426;11.182;2023-12-20T07:23:05;97657.28;;;4.97
17716;BMP280;50159;49.426;11.182;2023-12-20T07:25:32;97666.78;;;4.97
17716;BMP280;50159;49.426;11.182;2023-12-20T07:27:59;97658.03;;;4.99
17716;BMP280;50159;49.426;11.182;2023-12-20T07:30:26;97670.75;;;5.02
17716;BMP280;50159;49.426;11.182;2023-12-20T07:32:53;97668.28;;;5.01
17716;BMP280;50159;49.426;11.182;2023-12-20T07:35:20;97660.47;;;5.02
17716;BMP280;50159;49.426;11.182;2023-12-20T07:37:47;97656.97;;;5.03
17716;BMP280;50159;49.426;11.182;2023-12-20T07:40:14;97674.91;;;5.05
17716;BMP280;50159;49.426;11.182;2023-12-20T07:42:43;97671.22;;;5.09
17716;BMP280;50159;49.426;11.182;2023-12-20T07:45:10;97668.66;;;5.09
17716;BMP280;50159;49.426;11.182;2023-12-20T07:47:39;97686.69;;;5.09
17716;BMP280;50159;49.426;11.182;2023-12-20T07:50:07;97682.38;;;5.09
17716;BMP280;50159;49.426;11.182;2023-12-20T07:52:34;97677.22;;;5.09
17716;BMP280;50159;49.426;11.182;2023-12-20T07:55:01;97684.84;;;5.11
17716;BMP280;50159;49.426;11.182;2023-12-20T07:57:29;97689.91;;;5.12
17716;BMP280;50159;49.426;11.182;2023-12-20T07:59:56;97676.22;;;5.12
17716;BMP280;50159;49.426;11.182;2023-12-20T08:02:23;97678.69;;;5.13
17716;BMP280;50159;49.426;11.182;2023-12-20T08:04:50;97675.28;;;5.13
17716;BMP280;50159;49.426;11.182;2023-12-20T08:07:16;97688.03;;;5.15
17716;BMP280;50159;49.426;11.182;2023-12-20T08:09:43;97686.38;;;5.14
17716;BMP280;50159;49.426;11.182;2023-12-20T08:12:10;97675.13;;;5.15
17716;BMP280;50159;49.426;11.182;2023-12-20T08:14:38;97679.94;;;5.21
17716;BMP280;50159;49.426;11.182;2023-12-20T08:17:04;97681.59;;;5.22
17716;BMP280;50159;49.426;11.182;2023-12-20T08:19:31;97681.50;;;5.24
17716;BMP280;50159;49.426;11.182;2023-12-20T08:21:58;97679.75;;;5.24
17716;BMP280;50159;49.426;11.182;2023-12-20T08:24:25;97677.94;;;5.26
17716;BMP280;50159;49.426;11.182;2023-12-20T08:26:52;97684.56;;;5.30
17716;BMP280;50159;49.426;11.182;2023-12-20T08:29:19;97680.16;;;5.32
17716;BMP280;50159;49.426;11.182;2023-12-20T08:31:45;97686.03;;;5.34
17716;BMP280;50159;49.426;11.182;2023-12-20T08:34:13;97687.69;;;5.35
17716;BMP280;50159;49.426;11.182;2023-12-20T08:36:41;97691.94;;;5.36
17716;BMP280;50159;49.426;11.182;2023-12-20T08:39:08;97691.84;;;5.37
17716;BMP280;50159;49.426;11.182;2023-12-20T08:41:35;97690.78;;;5.41
17716;BMP280;50159;49.426;11.182;2023-12-20T08:44:02;97680.91;;;5.48
17716;BMP280;50159;49.426;11.182;2023-12-20T08:46:29;97689.25;;;5.53
17716;BMP280;50159;49.426;11.182;2023-12-20T08:48:56;97689.06;;;5.56
17716;BMP280;50159;49.426;11.182;2023-12-20T08:51:23;97689.69;;;5.59
17716;BMP280;50159;49.426;11.182;2023-12-20T08:53:52;97688.38;;;5.67
17716;BMP280;50159;49.426;11.182;2023-12-20T08:56:19;97699.56;;;5.66
17716;BMP280;50159;49.426;11.182;2023-12-20T08:58:46;97710.47;;;5.71
17716;BMP280;50159;49.426;11.182;2023-12-20T09:01:14;97694.25;;;5.69
17716;BMP280;50159;49.426;11.182;2023-12-20T09:03:41;97699.44;;;5.69
17716;BMP280;50159;49.426;11.182;2023-12-20T09:06:08;97691.69;;;5.69
17716;BMP280;50159;49.426;11.182;2023-12-20T09:08:34;97700.50;;;5.65
17716;BMP280;50159;49.426;11.182;2023-12-20T09:11:01;97683.22;;;5.67
17716;BMP280;50159;49.426;11.182;2023-12-20T09:13:28;97682.34;;;5.67
17716;BMP280;50159;49.426;11.182;2023-12-20T09:15:56;97679.75;;;5.67
17716;BMP280;50159;49.426;11.182;2023-12-20T09:18:23;97697.00;;;5.66
17716;BMP280;50159;49.426;11.182;2023-12-20T09:20:50;97708.81;;;5.70
17716;BMP280;50159;49.426;11.182;2023-12-20T09:23:17;97701.63;;;5.75
17716;BMP280;50159;49.426;11.182;2023-12-20T09:25:45;97697.97;;;5.79
17716;BMP280;50159;49.426;11.182;2023-12-20T09:28:11;97712.34;;;5.83
17716;BMP280;50159;49.426;11.182;2023-12-20T09:30:38;97702.22;;;5.80
17716;BMP280;50159;49.426;11.182;2023-12-20T09:33:07;97707.72;;;5.74
17716;BMP280;50159;49.426;11.182;2023-12-20T09:35:34;97689.00;;;5.71
17716;BMP280;50159;49.426;11.182;2023-12-20T09:38:01;97706.16;;;5.72
17716;BMP280;50159;49.426;11.182;2023-12-20T09:40:28;97698.16;;;5.76
17716;BMP280;50159;49.426;11.182;2023-12-20T09:42:58;97701.19;;;5.82
17716;BMP280;50159;49.426;11.182;2023-12-20T09:45:25;97705.91;;;5.90
17716;BMP280;50159;49.426;11.182;2023-12-20T09:47:53;97697.97;;;5.93
17716;BMP280;50159;49.426;11.182;2023-12-20T09:50:23;97700.19;;;5.99
17716;BMP280;50159;49.426;11.182;2023-12-20T09:52:51;97703.69;;;5.98
17716;BMP280;50159;49.426;11.182;2023-12-20T09:55:18;97697.50;;;6.00
17716;BMP280;50159;49.426;11.182;2023-12-20T09:57:47;97703.03;;;6.08
17716;BMP280;50159;49.426;11.182;2023-12-20T10:00:15;97694.09;;;6.13
17716;BMP280;50159;49.426;11.182;2023-12-20T10:02:58;97702.84;;;6.25
17716;BMP280;50159;49.426;11.182;2023-12-20T10:05:29;97712.72;;;6.32
17716;BMP280;50159;49.426;11.182;2023-12-20T10:07:58;97707.94;;;6.40
17716;BMP280;50159;49.426;11.182;2023-12-20T10:10:26;97703.41;;;6.43
17716;BMP280;50159;49.426;11.182;2023-12-20T10:13:09;97697.31;;;6.44
17716;BMP280;50159;49.426;11.182;2023-12-20T10:15:37;97701.66;;;6.44
17716;BMP280;50159;49.426;11.182;2023-12-20T10:18:04;97698.59;;;6.37
17716;BMP280;50159;49.426;11.182;2023-12-20T10:20:31;97703.84;;;6.36
17716;BMP280;50159;49.426;11.182;2023-12-20T10:22:59;97698.16;;;6.31
17716;BMP280;50159;49.426;11.182;2023-12-20T10:25:26;97701.66;;;6.30
17716;BMP280;50159;49.426;11.182;2023-12-20T10:28:11;97698.97;;;6.31
17716;BMP280;50159;49.426;11.182;2023-12-20T10:30:39;97697.03;;;6.35
17716;BMP280;50159;49.426;11.182;2023-12-20T10:33:07;97702.28;;;6.33
17716;BMP280;50159;49.426;11.182;2023-12-20T10:35:35;97691.88;;;6.35
17716;BMP280;50159;49.426;11.182;2023-12-20T10:38:06;97688.00;;;6.42
17716;BMP280;50159;49.426;11.182;2023-12-20T10:40:36;97684.28;;;6.46
17716;BMP280;50159;49.426;11.182;2023-12-20T10:43:04;97693.50;;;6.49
17716;BMP280;50159;49.426;11.182;2023-12-20T10:45:32;97688.53;;;6.47
17716;BMP280;50159;49.426;11.182;2023-12-20T10:47:59;97683.16;;;6.49
17716;BMP280;50159;49.426;11.182;2023-12-20T10:50:28;97665.66;;;6.54
17716;BMP280;50159;49.426;11.182;2023-12-20T10:52:58;97675.41;;;6.49
17716;BMP280;50159;49.426;11.182;2023-12-20T10:55:25;97673.97;;;6.46
17716;BMP280;50159;49.426;11.182;2023-12-20T10:58:07;97678.59;;;6.41
17716;BMP280;50159;49.426;11.182;2023-12-20T11:00:39;97664.09;;;6.38
17716;BMP280;50159;49.426;11.182;2023-12-20T11:03:10;97670.19;;;6.37
17716;BMP280;50159;49.426;11.182;2023-12-20T11:05:42;97669.56;;;6.34
17716;BMP280;50159;49.426;11.182;2023-12-20T11:11:34;97658.13;;;6.24
17716;BMP280;50159;49.426;11.182;2023-12-20T11:16:31;97655.00;;;6.19
17716;BMP280;50159;49.426;11.182;2023-12-20T11:19:14;97647.25;;;6.19
17716;BMP280;50159;49.426;11.182;2023-12-20T11:21:41;97654.06;;;6.20
17716;BMP280;50159;49.426;11.182;2023-12-20T11:24:09;97659.88;;;6.24
17716;BMP280;50159;49.426;11.182;2023-12-20T11:26:36;97652.94;;;6.24
17716;BMP280;50159;49.426;11.182;2023-12-20T11:29:56;97656.38;;;6.25
17716;BMP280;50159;49.426;11.182;2023-12-20T11:32:28;97657.84;;;6.28
17716;BMP280;50159;49.426;11.182;2023-12-20T11:34:55;97655.72;;;6.21
17716;BMP280;50159;49.426;11.182;2023-12-20T11:37:28;97642.38;;;6.15
17716;BMP280;50159;49.426;11.182;2023-12-20T11:39:56;97645.97;;;6.12
17716;BMP280;50159;49.426;11.182;2023-12-20T11:42:23;97639.34;;;6.08
17716;BMP280;50159;49.426;11.182;2023-12-20T11:44:50;97636.94;;;6.05
17716;BMP280;50159;49.426;11.182;2023-12-20T11:47:17;97647.06;;;6.08
17716;BMP280;50159;49.426;11.182;2023-12-20T11:49:48;97645.97;;;6.12
17716;BMP280;50159;49.426;11.182;2023-12-20T11:52:16;97641.63;;;6.13
17716;BMP280;50159;49.426;11.182;2023-12-20T11:54:43;97630.31;;;6.15
17716;BMP280;50159;49.426;11.182;2023-12-20T11:57:09;97638.59;;;6.20
17716;BMP280;50159;49.426;11.182;2023-12-20T11:59:36;97634.16;;;6.22
17716;BMP280;50159;49.426;11.182;2023-12-20T12:02:03;97624.94;;;6.18
17716;BMP280;50159;49.426;11.182;2023-12-20T12:04:30;97632.13;;;6.13
17716;BMP280;50159;49.426;11.182;2023-12-20T12:06:57;97639.34;;;6.08
17716;BMP280;50159;49.426;11.182;2023-12-20T12:09:24;97643.66;;;6.08
17716;BMP280;50159;49.426;11.182;2023-12-20T12:11:51;97656.69;;;6.06
17716;BMP280;50159;49.426;11.182;2023-12-20T12:14:17;97648.28;;;6.03
17716;BMP280;50159;49.426;11.182;2023-12-20T12:16:46;97649.22;;;6.02
17716;BMP280;50159;49.426;11.182;2023-12-20T12:19:26;97641.53;;;6.01
17716;BMP280;50159;49.426;11.182;2023-12-20T12:22:07;97643.28;;;6.00
17716;BMP280;50159;49.426;11.182;2023-12-20T12:24:48;97642.41;;;6.01
17716;BMP280;50159;49.426;11.182;2023-12-20T12:27:16;97642.31;;;6.03
17716;BMP280;50159;49.426;11.182;2023-12-20T12:30:00;97637.69;;;6.07
17716;BMP280;50159;49.426;11.182;2023-12-20T12:32:28;97640.16;;;6.09
17716;BMP280;50159;49.426;11.182;2023-12-20T12:34:55;97635.81;;;6.09
17716;BMP280;50159;49.426;11.182;2023-12-20T12:37:22;97632.22;;;6.12
17716;BMP280;50159;49.426;11.182;2023-12-20T12:39:53;97620.13;;;6.12
17716;BMP280;50159;49.426;11.182;2023-12-20T12:42:20;97611.41;;;6.15
17716;BMP280;50159;49.426;11.182;2023-12-20T12:44:48;97619.06;;;6.16
17716;BMP280;50159;49.426;11.182;2023-12-20T12:47:14;97625.13;;;6.15
17716;BMP280;50159;49.426;11.182;2023-12-20T12:49:41;97632.69;;;6.18
17716;BMP280;50159;49.426;11.182;2023-12-20T12:52:08;97629.00;;;6.22
17716;BMP280;50159;49.426;11.182;2023-12-20T12:54:35;97619.59;;;6.21
17716;BMP280;50159;49.426;11.182;2023-12-20T12:57:03;97621.13;;;6.24
17716;BMP280;50159;49.426;11.182;2023-12-20T12:59:30;97614.13;;;6.25
17716;BMP280;50159;49.426;11.182;2023-12-20T13:01:57;97625.22;;;6.27
17716;BMP280;50159;49.426;11.182;2023-12-20T13:04:25;97609.72;;;6.27
17716;BMP280;50159;49.426;11.182;2023-12-20T13:06:52;97623.47;;;6.28
17716;BMP280;50159;49.426;11.182;2023-12-20T13:09:19;97619.84;;;6.30
17716;BMP280;50159;49.426;11.182;2023-12-20T13:11:46;97612.81;;;6.32
17716;BMP280;50159;49.426;11.182;2023-12-20T13:14:12;97612.72;;;6.34
17716;BMP280;50159;49.426;11.182;2023-12-20T13:16:42;97610.97;;;6.34
17716;BMP280;50159;49.426;11.182;2023-12-20T13:19:08;97608.69;;;6.30
17716;BMP280;50159;49.426;11.182;2023-12-20T13:21:36;97613.13;;;6.28
17716;BMP280;50159;49.426;11.182;2023-12-20T13:24:03;97609.41;;;6.32
17716;BMP280;50159;49.426;11.182;2023-12-20T13:26:30;97614.69;;;6.30
17716;BMP280;50159;49.426;11.182;2023-12-20T13:28:57;97620.69;;;6.31
17716;BMP280;50159;49.426;11.182;2023-12-20T13:31:24;97608.59;;;6.31
17716;BMP280;50159;49.426;11.182;2023-12-20T13:33:51;97610.03;;;6.35
17716;BMP280;50159;49.426;11.182;2023-12-20T13:36:19;97617.84;;;6.47
17716;BMP280;50159;49.426;11.182;2023-12-20T13:38:46;97613.00;;;6.69
17716;BMP280;50159;49.426;11.182;2023-12-20T13:41:12;97610.69;;;6.91
17716;BMP280;50159;49.426;11.182;2023-12-20T13:43:39;97611.44;;;6.93
17716;BMP280;50159;49.426;11.182;2023-12-20T13:46:06;97610.56;;;6.80
17716;BMP280;50159;49.426;11.182;2023-12-20T13:48:32;97610.88;;;6.62
17716;BMP280;50159;49.426;11.182;2023-12-20T13:50:59;97619.50;;;6.48
17716;BMP280;50159;49.426;11.182;2023-12-20T13:53:26;97621.66;;;6.42
17716;BMP280;50159;49.426;11.182;2023-12-20T13:55:53;97615.88;;;6.39
17716;BMP280;50159;49.426;11.182;2023-12-20T13:58:20;97622.34;;;6.32
17716;BMP280;50159;49.426;11.182;2023-12-20T14:00:46;97625.94;;;6.29
17716;BMP280;50159;49.426;11.182;2023-12-20T14:03:13;97614.53;;;6.20
17716;BMP280;50159;49.426;11.182;2023-12-20T14:05:40;97616.63;;;6.13
17716;BMP280;50159;49.426;11.182;2023-12-20T14:08:07;97619.50;;;6.09
17716;BMP280;50159;49.426;11.182;2023-12-20T14:10:34;97610.31;;;6.05
17716;BMP280;50159;49.426;11.182;2023-12-20T14:13:01;97613.09;;;6.02
17716;BMP280;50159;49.426;11.182;2023-12-20T14:15:28;97600.34;;;5.99
17716;BMP280;50159;49.426;11.182;2023-12-20T14:17:55;97618.31;;;6.01